sensor_id;sensor_type;location;lat;lon;timestamp;P1;durP1;ratioP1;P2;durP2;ratioP2
18194;SDS011;9223;50.988;3.162;2023-03-21T00:02:55;9.80;;;7.15;;
18194;SDS011;9223;50.988;3.162;2023-03-21T00:09:00;9.52;;;6.18;;
18194;SDS011;9223;50.988;3.162;2023-03-21T00:15:04;9.75;;;6.70;;
18194;SDS011;9223;50.988;3.162;2023-03-21T00:21:09;10.10;;;6.55;;
18194;SDS011;9223;50.988;3.162;2023-03-21T00:27:35;10.65;;;5.72;;
18194;SDS011;9223;50.988;3.162;2023-03-21T00:33:58;10.18;;;6.82;;
18194;SDS011;9223;50.988;3.162;2023-03-21T00:40:02;10.77;;;6.53;;
18194;SDS011;9223;50.988;3.162;2023-03-21T00:46:21;13.50;;;6.72;;
18194;SDS011;9223;50.988;3.162;2023-03-21T00:52:30;8.93;;;6.38;;
18194;SDS011;9223;50.988;3.162;2023-03-21T00:58:41;14.35;;;7.13;;
18194;SDS011;9223;50.988;3.162;2023-03-21T01:04:46;10.85;;;6.63;;
18194;SDS011;9223;50.988;3.162;2023-03-21T01:10:50;12.55;;;7.32;;
18194;SDS011;9223;50.988;3.162;2023-03-21T01:16:53;11.55;;;7.32;;
18194;SDS011;9223;50.988;3.162;2023-03-21T01:22:58;11.63;;;7.07;;
18194;SDS011;9223;50.988;3.162;2023-03-21T01:29:02;12.23;;;7.50;;
18194;SDS011;9223;50.988;3.162;2023-03-21T01:35:06;10.93;;;6.97;;
18194;SDS011;9223;50.988;3.162;2023-03-21T01:41:14;12.45;;;6.70;;
18194;SDS011;9223;50.988;3.162;2023-03-21T01:47:20;13.43;;;6.88;;
18194;SDS011;9223;50.988;3.162;2023-03-21T01:53:24;10.38;;;6.30;;
18194;SDS011;9223;50.988;3.162;2023-03-21T01:59:33;9.70;;;6.38;;
18194;SDS011;9223;50.988;3.162;2023-03-21T02:05:40;11.57;;;6.40;;
18194;SDS011;9223;50.988;3.162;2023-03-21T02:11:46;11.57;;;6.05;;
18194;SDS011;9223;50.988;3.162;2023-03-21T02:17:52;14.38;;;6.50;;
18194;SDS011;9223;50.988;3.162;2023-03-21T02:24:08;9.32;;;5.50;;
18194;SDS011;9223;50.988;3.162;2023-03-21T02:36:59;12.30;;;5.40;;
18194;SDS011;9223;50.988;3.162;2023-03-21T02:43:06;6.97;;;5.10;;
18194;SDS011;9223;50.988;3.162;2023-03-21T02:49:23;12.02;;;5.95;;
18194;SDS011;9223;50.988;3.162;2023-03-21T02:55:30;12.35;;;5.80;;
18194;SDS011;9223;50.988;3.162;2023-03-21T03:01:34;10.05;;;5.53;;
18194;SDS011;9223;50.988;3.162;2023-03-21T03:07:39;9.90;;;5.43;;
18194;SDS011;9223;50.988;3.162;2023-03-21T03:13:49;11.93;;;5.57;;
18194;SDS011;9223;50.988;3.162;2023-03-21T03:20:00;11.50;;;5.22;;
18194;SDS011;9223;50.988;3.162;2023-03-21T03:26:18;13.05;;;5.32;;
18194;SDS011;9223;50.988;3.162;2023-03-21T03:32:25;7.20;;;4.68;;
18194;SDS011;9223;50.988;3.162;2023-03-21T03:38:31;9.70;;;4.88;;
18194;SDS011;9223;50.988;3.162;2023-03-21T03:44:36;8.25;;;4.78;;
18194;SDS011;9223;50.988;3.162;2023-03-21T03:50:42;8.05;;;4.82;;
18194;SDS011;9223;50.988;3.162;2023-03-21T03:56:47;8.32;;;4.60;;
18194;SDS011;9223;50.988;3.162;2023-03-21T04:02:52;6.85;;;4.28;;
18194;SDS011;9223;50.988;3.162;2023-03-21T04:08:57;7.32;;;3.95;;
18194;SDS011;9223;50.988;3.162;2023-03-21T04:15:06;6.53;;;4.45;;
18194;SDS011;9223;50.988;3.162;2023-03-21T04:21:13;7.43;;;4.20;;
18194;SDS011;9223;50.988;3.162;2023-03-21T04:27:18;6.82;;;4.25;;
18194;SDS011;9223;50.988;3.162;2023-03-21T04:33:22;8.15;;;4.10;;
18194;SDS011;9223;50.988;3.162;2023-03-21T04:39:26;8.43;;;3.78;;
18194;SDS011;9223;50.988;3.162;2023-03-21T04:45:31;7.68;;;3.70;;
18194;SDS011;9223;50.988;3.162;2023-03-21T04:51:34;9.40;;;4.25;;
18194;SDS011;9223;50.988;3.162;2023-03-21T04:57:39;9.48;;;5.68;;
18194;SDS011;9223;50.988;3.162;2023-03-21T05:03:43;11.18;;;8.70;;
18194;SDS011;9223;50.988;3.162;2023-03-21T05:09:47;7.35;;;4.60;;
18194;SDS011;9223;50.988;3.162;2023-03-21T05:15:50;7.03;;;4.80;;
18194;SDS011;9223;50.988;3.162;2023-03-21T05:21:55;10.32;;;5.88;;
18194;SDS011;9223;50.988;3.162;2023-03-21T05:27:59;10.65;;;5.47;;
18194;SDS011;9223;50.988;3.162;2023-03-21T05:34:03;8.95;;;5.57;;
18194;SDS011;9223;50.988;3.162;2023-03-21T05:40:10;11.25;;;5.65;;
18194;SDS011;9223;50.988;3.162;2023-03-21T05:46:13;9.60;;;6.03;;
18194;SDS011;9223;50.988;3.162;2023-03-21T05:52:17;8.82;;;6.30;;
18194;SDS011;9223;50.988;3.162;2023-03-21T05:58:22;14.45;;;6.60;;
18194;SDS011;9223;50.988;3.162;2023-03-21T06:04:26;11.13;;;6.82;;
18194;SDS011;9223;50.988;3.162;2023-03-21T06:10:29;14.80;;;6.90;;
18194;SDS011;9223;50.988;3.162;2023-03-21T06:16:34;12.23;;;6.95;;
18194;SDS011;9223;50.988;3.162;2023-03-21T06:22:38;10.63;;;4.88;;
18194;SDS011;9223;50.988;3.162;2023-03-21T06:28:41;7.90;;;5.47;;
18194;SDS011;9223;50.988;3.162;2023-03-21T06:34:46;10.75;;;4.95;;
18194;SDS011;9223;50.988;3.162;2023-03-21T06:40:50;12.07;;;6.63;;
18194;SDS011;9223;50.988;3.162;2023-03-21T06:46:53;12.15;;;6.60;;
18194;SDS011;9223;50.988;3.162;2023-03-21T06:52:58;11.55;;;6.60;;
18194;SDS011;9223;50.988;3.162;2023-03-21T06:59:02;18.13;;;8.40;;
18194;SDS011;9223;50.988;3.162;2023-03-21T07:05:06;14.90;;;7.30;;
18194;SDS011;9223;50.988;3.162;2023-03-21T07:11:11;11.70;;;7.93;;
18194;SDS011;9223;50.988;3.162;2023-03-21T07:17:14;10.57;;;7.35;;
18194;SDS011;9223;50.988;3.162;2023-03-21T07:23:18;12.95;;;6.18;;
18194;SDS011;9223;50.988;3.162;2023-03-21T07:29:23;11.38;;;7.05;;
18194;SDS011;9223;50.988;3.162;2023-03-21T07:35:27;12.10;;;6.55;;
18194;SDS011;9223;50.988;3.162;2023-03-21T07:41:30;9.43;;;5.00;;
18194;SDS011;9223;50.988;3.162;2023-03-21T07:47:35;11.15;;;6.72;;
18194;SDS011;9223;50.988;3.162;2023-03-21T07:53:38;9.27;;;6.68;;
18194;SDS011;9223;50.988;3.162;2023-03-21T07:59:44;10.02;;;5.20;;
18194;SDS011;9223;50.988;3.162;2023-03-21T08:05:48;10.48;;;4.75;;
18194;SDS011;9223;50.988;3.162;2023-03-21T08:11:52;8.50;;;5.22;;
18194;SDS011;9223;50.988;3.162;2023-03-21T08:17:57;10.05;;;5.85;;
18194;SDS011;9223;50.988;3.162;2023-03-21T08:24:02;9.85;;;5.22;;
18194;SDS011;9223;50.988;3.162;2023-03-21T08:30:06;9.27;;;5.78;;
18194;SDS011;9223;50.988;3.162;2023-03-21T08:36:10;8.23;;;4.22;;
18194;SDS011;9223;50.988;3.162;2023-03-21T08:42:15;9.80;;;6.97;;
18194;SDS011;9223;50.988;3.162;2023-03-21T08:48:18;12.27;;;6.10;;
18194;SDS011;9223;50.988;3.162;2023-03-21T08:54:22;10.65;;;6.03;;
18194;SDS011;9223;50.988;3.162;2023-03-21T09:00:27;7.88;;;4.90;;
18194;SDS011;9223;50.988;3.162;2023-03-21T09:06:30;6.20;;;5.00;;
18194;SDS011;9223;50.988;3.162;2023-03-21T09:12:34;9.13;;;4.53;;
18194;SDS011;9223;50.988;3.162;2023-03-21T09:18:38;10.02;;;5.20;;
18194;SDS011;9223;50.988;3.162;2023-03-21T09:24:49;7.95;;;4.55;;
18194;SDS011;9223;50.988;3.162;2023-03-21T09:30:53;7.55;;;4.93;;
18194;SDS011;9223;50.988;3.162;2023-03-21T09:36:58;8.93;;;4.63;;
18194;SDS011;9223;50.988;3.162;2023-03-21T09:43:04;8.25;;;5.38;;
18194;SDS011;9223;50.988;3.162;2023-03-21T09:49:10;5.88;;;4.07;;
18194;SDS011;9223;50.988;3.162;2023-03-21T09:55:21;7.70;;;5.82;;
18194;SDS011;9223;50.988;3.162;2023-03-21T10:01:28;7.40;;;4.03;;
18194;SDS011;9223;50.988;3.162;2023-03-21T10:07:35;7.43;;;3.85;;
18194;SDS011;9223;50.988;3.162;2023-03-21T10:13:41;6.30;;;3.05;;
18194;SDS011;9223;50.988;3.162;2023-03-21T10:19:46;6.82;;;3.63;;
18194;SDS011;9223;50.988;3.162;2023-03-21T10:25:51;5.03;;;3.45;;
18194;SDS011;9223;50.988;3.162;2023-03-21T10:32:00;4.88;;;3.00;;
18194;SDS011;9223;50.988;3.162;2023-03-21T10:38:05;6.35;;;3.97;;
18194;SDS011;9223;50.988;3.162;2023-03-21T10:44:09;3.85;;;2.65;;
18194;SDS011;9223;50.988;3.162;2023-03-21T10:50:17;5.95;;;2.75;;
18194;SDS011;9223;50.988;3.162;2023-03-21T10:56:26;3.83;;;2.83;;
18194;SDS011;9223;50.988;3.162;2023-03-21T11:02:31;6.93;;;3.83;;
18194;SDS011;9223;50.988;3.162;2023-03-21T11:08:38;4.28;;;3.25;;
18194;SDS011;9223;50.988;3.162;2023-03-21T11:14:43;4.80;;;3.33;;
18194;SDS011;9223;50.988;3.162;2023-03-21T11:20:50;5.70;;;3.30;;
18194;SDS011;9223;50.988;3.162;2023-03-21T11:26:56;4.53;;;2.88;;
18194;SDS011;9223;50.988;3.162;2023-03-21T11:33:00;5.82;;;3.60;;
18194;SDS011;9223;50.988;3.162;2023-03-21T11:39:17;4.55;;;2.95;;
18194;SDS011;9223;50.988;3.162;2023-03-21T11:45:28;6.25;;;3.30;;
18194;SDS011;9223;50.988;3.162;2023-03-21T11:51:34;5.32;;;3.83;;
18194;SDS011;9223;50.988;3.162;2023-03-21T11:57:42;3.50;;;3.05;;
18194;SDS011;9223;50.988;3.162;2023-03-21T12:10:14;5.63;;;3.78;;
18194;SDS011;9223;50.988;3.162;2023-03-21T12:16:27;6.38;;;4.07;;
18194;SDS011;9223;50.988;3.162;2023-03-21T12:22:33;8.43;;;4.55;;
18194;SDS011;9223;50.988;3.162;2023-03-21T12:28:45;3.95;;;3.03;;
18194;SDS011;9223;50.988;3.162;2023-03-21T12:41:15;3.38;;;2.83;;
18194;SDS011;9223;50.988;3.162;2023-03-21T12:47:24;2.97;;;2.47;;
18194;SDS011;9223;50.988;3.162;2023-03-21T12:53:31;2.35;;;2.05;;
18194;SDS011;9223;50.988;3.162;2023-03-21T12:59:38;1.70;;;1.60;;
18194;SDS011;9223;50.988;3.162;2023-03-21T13:05:45;2.97;;;2.10;;
18194;SDS011;9223;50.988;3.162;2023-03-21T13:11:50;8.35;;;2.10;;
18194;SDS011;9223;50.988;3.162;2023-03-21T13:17:56;2.00;;;1.80;;
18194;SDS011;9223;50.988;3.162;2023-03-21T13:24:03;2.08;;;1.88;;
18194;SDS011;9223;50.988;3.162;2023-03-21T13:30:16;3.03;;;2.50;;
18194;SDS011;9223;50.988;3.162;2023-03-21T13:36:21;2.85;;;2.10;;
18194;SDS011;9223;50.988;3.162;2023-03-21T13:42:31;4.80;;;2.10;;
18194;SDS011;9223;50.988;3.162;2023-03-21T13:48:53;3.50;;;1.70;;
18194;SDS011;9223;50.988;3.162;2023-03-21T13:55:00;4.40;;;1.83;;
18194;SDS011;9223;50.988;3.162;2023-03-21T14:01:26;3.25;;;1.50;;
18194;SDS011;9223;50.988;3.162;2023-03-21T14:07:30;2.88;;;1.52;;
18194;SDS011;9223;50.988;3.162;2023-03-21T14:13:34;2.20;;;2.00;;
18194;SDS011;9223;50.988;3.162;2023-03-21T14:19:53;2.83;;;2.30;;
18194;SDS011;9223;50.988;3.162;2023-03-21T14:25:56;2.20;;;2.00;;
18194;SDS011;9223;50.988;3.162;2023-03-21T14:32:00;3.20;;;2.22;;
18194;SDS011;9223;50.988;3.162;2023-03-21T14:38:07;2.78;;;1.92;;
18194;SDS011;9223;50.988;3.162;2023-03-21T14:44:14;2.25;;;2.05;;
18194;SDS011;9223;50.988;3.162;2023-03-21T14:50:23;2.78;;;1.35;;
18194;SDS011;9223;50.988;3.162;2023-03-21T14:56:29;2.60;;;1.30;;
18194;SDS011;9223;50.988;3.162;2023-03-21T15:02:33;1.80;;;1.20;;
18194;SDS011;9223;50.988;3.162;2023-03-21T15:08:38;2.67;;;1.40;;
18194;SDS011;9223;50.988;3.162;2023-03-21T15:14:43;3.38;;;1.33;;
18194;SDS011;9223;50.988;3.162;2023-03-21T15:20:46;3.15;;;1.92;;
18194;SDS011;9223;50.988;3.162;2023-03-21T15:26:54;4.25;;;1.90;;
18194;SDS011;9223;50.988;3.162;2023-03-21T15:33:05;5.38;;;1.95;;
18194;SDS011;9223;50.988;3.162;2023-03-21T15:39:11;4.00;;;2.42;;
18194;SDS011;9223;50.988;3.162;2023-03-21T15:45:18;2.17;;;1.98;;
18194;SDS011;9223;50.988;3.162;2023-03-21T15:51:23;2.08;;;1.80;;
18194;SDS011;9223;50.988;3.162;2023-03-21T15:57:27;3.42;;;1.70;;
18194;SDS011;9223;50.988;3.162;2023-03-21T16:03:34;5.15;;;3.55;;
18194;SDS011;9223;50.988;3.162;2023-03-21T16:09:40;5.25;;;1.80;;
18194;SDS011;9223;50.988;3.162;2023-03-21T16:15:44;1.92;;;1.05;;
18194;SDS011;9223;50.988;3.162;2023-03-21T16:21:48;3.55;;;1.48;;
18194;SDS011;9223;50.988;3.162;2023-03-21T16:27:54;1.60;;;0.93;;
18194;SDS011;9223;50.988;3.162;2023-03-21T16:33:57;1.95;;;1.30;;
18194;SDS011;9223;50.988;3.162;2023-03-21T16:40:02;3.25;;;1.15;;
18194;SDS011;9223;50.988;3.162;2023-03-21T16:46:09;3.78;;;1.63;;
18194;SDS011;9223;50.988;3.162;2023-03-21T16:52:13;1.90;;;1.27;;
18194;SDS011;9223;50.988;3.162;2023-03-21T16:58:17;4.47;;;1.40;;
18194;SDS011;9223;50.988;3.162;2023-03-21T17:04:21;2.72;;;1.30;;
18194;SDS011;9223;50.988;3.162;2023-03-21T17:10:26;3.22;;;1.25;;
18194;SDS011;9223;50.988;3.162;2023-03-21T17:16:29;2.88;;;1.70;;
18194;SDS011;9223;50.988;3.162;2023-03-21T17:22:34;2.45;;;1.17;;
18194;SDS011;9223;50.988;3.162;2023-03-21T17:28:38;4.80;;;1.38;;
18194;SDS011;9223;50.988;3.162;2023-03-21T17:34:42;3.75;;;1.42;;
18194;SDS011;9223;50.988;3.162;2023-03-21T17:40:47;5.35;;;1.20;;
18194;SDS011;9223;50.988;3.162;2023-03-21T17:46:51;6.82;;;1.00;;
18194;SDS011;9223;50.988;3.162;2023-03-21T17:52:55;5.20;;;1.45;;
18194;SDS011;9223;50.988;3.162;2023-03-21T17:59:00;5.10;;;1.38;;
18194;SDS011;9223;50.988;3.162;2023-03-21T18:05:05;11.80;;;3.55;;
18194;SDS011;9223;50.988;3.162;2023-03-21T18:11:10;3.65;;;2.05;;
18194;SDS011;9223;50.988;3.162;2023-03-21T18:17:15;8.57;;;2.78;;
18194;SDS011;9223;50.988;3.162;2023-03-21T18:23:21;8.98;;;2.88;;
18194;SDS011;9223;50.988;3.162;2023-03-21T18:29:25;8.18;;;3.40;;
18194;SDS011;9223;50.988;3.162;2023-03-21T18:35:50;9.68;;;3.88;;
18194;SDS011;9223;50.988;3.162;2023-03-21T18:41:59;4.88;;;2.40;;
18194;SDS011;9223;50.988;3.162;2023-03-21T18:48:06;8.57;;;2.83;;
18194;SDS011;9223;50.988;3.162;2023-03-21T18:54:15;5.32;;;2.25;;
18194;SDS011;9223;50.988;3.162;2023-03-21T19:00:19;5.55;;;1.85;;
18194;SDS011;9223;50.988;3.162;2023-03-21T19:06:23;6.80;;;1.80;;
18194;SDS011;9223;50.988;3.162;2023-03-21T19:12:28;6.25;;;2.50;;
18194;SDS011;9223;50.988;3.162;2023-03-21T19:18:32;4.20;;;1.98;;
18194;SDS011;9223;50.988;3.162;2023-03-21T19:24:55;5.95;;;1.83;;
18194;SDS011;9223;50.988;3.162;2023-03-21T19:31:03;9.98;;;2.40;;
18194;SDS011;9223;50.988;3.162;2023-03-21T19:37:07;6.32;;;2.42;;
18194;SDS011;9223;50.988;3.162;2023-03-21T19:43:11;9.60;;;2.95;;
18194;SDS011;9223;50.988;3.162;2023-03-21T19:49:34;7.43;;;2.60;;
18194;SDS011;9223;50.988;3.162;2023-03-21T19:56:01;9.93;;;3.10;;
18194;SDS011;9223;50.988;3.162;2023-03-21T20:02:21;10.60;;;4.40;;
18194;SDS011;9223;50.988;3.162;2023-03-21T20:08:38;10.23;;;3.28;;
18194;SDS011;9223;50.988;3.162;2023-03-21T20:15:02;11.82;;;6.38;;
18194;SDS011;9223;50.988;3.162;2023-03-21T20:21:18;15.98;;;9.18;;
18194;SDS011;9223;50.988;3.162;2023-03-21T20:27:27;12.30;;;6.78;;
18194;SDS011;9223;50.988;3.162;2023-03-21T20:33:31;11.02;;;6.70;;
18194;SDS011;9223;50.988;3.162;2023-03-21T20:39:35;10.05;;;4.28;;
18194;SDS011;9223;50.988;3.162;2023-03-21T20:45:40;8.45;;;2.80;;
18194;SDS011;9223;50.988;3.162;2023-03-21T20:51:43;10.05;;;2.78;;
18194;SDS011;9223;50.988;3.162;2023-03-21T20:58:07;9.20;;;2.88;;
18194;SDS011;9223;50.988;3.162;2023-03-21T21:04:35;8.25;;;3.90;;
18194;SDS011;9223;50.988;3.162;2023-03-21T21:10:58;12.00;;;4.13;;
18194;SDS011;9223;50.988;3.162;2023-03-21T21:17:22;13.38;;;6.40;;
18194;SDS011;9223;50.988;3.162;2023-03-21T21:23:47;18.23;;;6.95;;
18194;SDS011;9223;50.988;3.162;2023-03-21T21:29:51;5.95;;;3.15;;
18194;SDS011;9223;50.988;3.162;2023-03-21T21:35:54;12.25;;;3.78;;
18194;SDS011;9223;50.988;3.162;2023-03-21T21:41:59;12.10;;;3.42;;
18194;SDS011;9223;50.988;3.162;2023-03-21T21:48:05;5.40;;;2.72;;
18194;SDS011;9223;50.988;3.162;2023-03-21T21:54:09;8.52;;;2.80;;
18194;SDS011;9223;50.988;3.162;2023-03-21T22:00:20;4.97;;;2.63;;
18194;SDS011;9223;50.988;3.162;2023-03-21T22:06:25;8.80;;;2.53;;
18194;SDS011;9223;50.988;3.162;2023-03-21T22:12:28;8.85;;;2.58;;
18194;SDS011;9223;50.988;3.162;2023-03-21T22:18:34;4.70;;;2.13;;
18194;SDS011;9223;50.988;3.162;2023-03-21T22:24:38;8.10;;;2.22;;
18194;SDS011;9223;50.988;3.162;2023-03-21T22:30:42;5.55;;;1.98;;
18194;SDS011;9223;50.988;3.162;2023-03-21T22:36:47;7.25;;;2.25;;
18194;SDS011;9223;50.988;3.162;2023-03-21T22:42:50;3.40;;;1.83;;
18194;SDS011;9223;50.988;3.162;2023-03-21T22:48:54;8.98;;;2.33;;
18194;SDS011;9223;50.988;3.162;2023-03-21T22:54:59;6.47;;;2.20;;
18194;SDS011;9223;50.988;3.162;2023-03-21T23:01:02;7.45;;;2.58;;
18194;SDS011;9223;50.988;3.162;2023-03-21T23:07:06;7.65;;;2.80;;
18194;SDS011;9223;50.988;3.162;2023-03-21T23:13:11;6.50;;;2.92;;
18194;SDS011;9223;50.988;3.162;2023-03-21T23:19:14;6.03;;;2.95;;
18194;SDS011;9223;50.988;3.162;2023-03-21T23:25:20;8.88;;;3.38;;
18194;SDS011;9223;50.988;3.162;2023-03-21T23:31:27;8.00;;;3.80;;
18194;SDS011;9223;50.988;3.162;2023-03-21T23:37:33;6.50;;;3.33;;
18194;SDS011;9223;50.988;3.162;2023-03-21T23:43:36;6.20;;;3.05;;
18194;SDS011;9223;50.988;3.162;2023-03-21T23:49:41;8.73;;;3.40;;
18194;SDS011;9223;50.988;3.162;2023-03-21T23:55:45;9.13;;;3.45;;
